sensor_id;sensor_type;location;lat;lon;timestamp;pressure;altitude;pressure_sealevel;temperature;humidity
69855;BME280;57146;48.140;16.304;2022-08-25T00:00:15;99491.88;;;21.91;75.42
69855;BME280;57146;48.140;16.304;2022-08-25T00:02:42;99494.94;;;21.90;75.30
69855;BME280;57146;48.140;16.304;2022-08-25T00:05:27;99489.56;;;21.90;75.48
69855;BME280;57146;48.140;16.304;2022-08-25T00:08:00;99492.63;;;21.88;75.01
69855;BME280;57146;48.140;16.304;2022-08-25T00:10:28;99491.09;;;21.91;75.57
69855;BME280;57146;48.140;16.304;2022-08-25T00:12:55;99484.97;;;21.90;75.59
69855;BME280;57146;48.140;16.304;2022-08-25T00:15:22;99485.34;;;21.89;75.17
69855;BME280;57146;48.140;16.304;2022-08-25T00:17:50;99484.59;;;21.88;75.80
69855;BME280;57146;48.140;16.304;2022-08-25T00:20:18;99481.91;;;21.88;75.78
69855;BME280;57146;48.140;16.304;2022-08-25T00:22:45;99484.22;;;21.90;76.05
69855;BME280;57146;48.140;16.304;2022-08-25T00:25:12;99479.22;;;21.88;75.71
69855;BME280;57146;48.140;16.304;2022-08-25T00:27:39;99485.34;;;21.89;75.98
69855;BME280;57146;48.140;16.304;2022-08-25T00:30:06;99480.34;;;21.87;75.88
69855;BME280;57146;48.140;16.304;2022-08-25T00:32:33;99485.75;;;21.91;76.11
69855;BME280;57146;48.140;16.304;2022-08-25T00:35:00;99480.38;;;21.91;76.38
69855;BME280;57146;48.140;16.304;2022-08-25T00:37:27;99486.13;;;21.89;76.26
69855;BME280;57146;48.140;16.304;2022-08-25T00:39:54;99482.66;;;21.89;76.03
69855;BME280;57146;48.140;16.304;2022-08-25T00:42:22;99485.72;;;21.87;76.51
69855;BME280;57146;48.140;16.304;2022-08-25T00:44:49;99482.66;;;21.85;76.29
69855;BME280;57146;48.140;16.304;2022-08-25T00:47:17;99477.66;;;21.87;76.44
69855;BME280;57146;48.140;16.304;2022-08-25T00:49:48;99479.22;;;21.88;76.44
69855;BME280;57146;48.140;16.304;2022-08-25T00:52:24;99481.50;;;21.86;75.74
69855;BME280;57146;48.140;16.304;2022-08-25T00:54:57;99484.16;;;21.86;75.66
69855;BME280;57146;48.140;16.304;2022-08-25T00:58:17;99477.69;;;21.91;76.28
69855;BME280;57146;48.140;16.304;2022-08-25T01:00:48;99470.81;;;21.90;75.99
69855;BME280;57146;48.140;16.304;2022-08-25T01:03:17;99471.94;;;21.89;76.44
69855;BME280;57146;48.140;16.304;2022-08-25T01:05:45;99468.91;;;21.94;76.74
69855;BME280;57146;48.140;16.304;2022-08-25T01:08:13;99471.59;;;21.94;76.84
69855;BME280;57146;48.140;16.304;2022-08-25T01:10:43;99470.41;;;21.88;77.57
69855;BME280;57146;48.140;16.304;2022-08-25T01:13:33;99464.97;;;21.81;77.58
69855;BME280;57146;48.140;16.304;2022-08-25T01:16:04;99466.44;;;21.71;77.65
69855;BME280;57146;48.140;16.304;2022-08-25T01:18:56;99454.41;;;21.54;78.22
69855;BME280;57146;48.140;16.304;2022-08-25T01:21:26;99453.94;;;21.45;78.89
69855;BME280;57146;48.140;16.304;2022-08-25T01:23:54;99461.53;;;21.39;79.15
69855;BME280;57146;48.140;16.304;2022-08-25T01:26:25;99452.72;;;21.35;79.40
69855;BME280;57146;48.140;16.304;2022-08-25T01:28:58;99457.63;;;21.33;79.32
69855;BME280;57146;48.140;16.304;2022-08-25T01:31:27;99458.00;;;21.32;79.79
69855;BME280;57146;48.140;16.304;2022-08-25T01:33:56;99453.00;;;21.30;79.63
69855;BME280;57146;48.140;16.304;2022-08-25T01:36:25;99455.69;;;21.30;79.69
69855;BME280;57146;48.140;16.304;2022-08-25T01:38:52;99455.28;;;21.28;79.74
69855;BME280;57146;48.140;16.304;2022-08-25T01:44:28;99445.63;;;21.20;80.50
69855;BME280;57146;48.140;16.304;2022-08-25T01:46:55;99442.13;;;21.16;80.38
69855;BME280;57146;48.140;16.304;2022-08-25T01:49:22;99436.72;;;21.09;80.67
69855;BME280;57146;48.140;16.304;2022-08-25T01:51:56;99439.75;;;21.07;81.04
69855;BME280;57146;48.140;16.304;2022-08-25T01:54:26;99441.69;;;21.07;80.79
69855;BME280;57146;48.140;16.304;2022-08-25T01:56:52;99445.84;;;21.04;80.90
69855;BME280;57146;48.140;16.304;2022-08-25T01:59:20;99449.66;;;21.03;81.14
69855;BME280;57146;48.140;16.304;2022-08-25T02:01:50;99445.06;;;21.03;81.07
69855;BME280;57146;48.140;16.304;2022-08-25T02:04:27;99451.97;;;21.04;81.31
69855;BME280;57146;48.140;16.304;2022-08-25T02:06:54;99455.81;;;21.07;81.08
69855;BME280;57146;48.140;16.304;2022-08-25T02:09:21;99441.28;;;21.08;81.07
69855;BME280;57146;48.140;16.304;2022-08-25T02:11:48;99438.22;;;21.06;81.19
69855;BME280;57146;48.140;16.304;2022-08-25T02:14:15;99444.69;;;21.05;81.08
69855;BME280;57146;48.140;16.304;2022-08-25T02:16:46;99447.75;;;21.03;81.29
69855;BME280;57146;48.140;16.304;2022-08-25T02:19:14;99452.34;;;21.03;81.30
69855;BME280;57146;48.140;16.304;2022-08-25T02:21:41;99446.97;;;21.03;81.37
69855;BME280;57146;48.140;16.304;2022-08-25T02:24:09;99450.81;;;21.05;80.89
69855;BME280;57146;48.140;16.304;2022-08-25T02:26:36;99443.97;;;21.08;81.14
69855;BME280;57146;48.140;16.304;2022-08-25T02:29:05;99444.75;;;21.09;81.07
69855;BME280;57146;48.140;16.304;2022-08-25T02:31:32;99448.19;;;21.09;81.05
69855;BME280;57146;48.140;16.304;2022-08-25T02:33:59;99451.28;;;21.11;80.75
69855;BME280;57146;48.140;16.304;2022-08-25T02:36:27;99445.53;;;21.13;80.88
69855;BME280;57146;48.140;16.304;2022-08-25T02:38:54;99442.53;;;21.14;80.83
69855;BME280;57146;48.140;16.304;2022-08-25T02:41:22;99442.88;;;21.13;80.94
69855;BME280;57146;48.140;16.304;2022-08-25T02:43:58;99437.94;;;21.15;80.89
69855;BME280;57146;48.140;16.304;2022-08-25T02:46:26;99445.97;;;21.15;80.87
69855;BME280;57146;48.140;16.304;2022-08-25T02:48:53;99440.22;;;21.16;80.75
69855;BME280;57146;48.140;16.304;2022-08-25T02:51:23;99434.53;;;21.18;80.86
69855;BME280;57146;48.140;16.304;2022-08-25T02:53:50;99439.13;;;21.17;80.94
69855;BME280;57146;48.140;16.304;2022-08-25T02:56:17;99438.31;;;21.13;80.94
69855;BME280;57146;48.140;16.304;2022-08-25T02:58:45;99428.34;;;21.10;81.30
69855;BME280;57146;48.140;16.304;2022-08-25T03:01:13;99431.00;;;21.10;81.20
69855;BME280;57146;48.140;16.304;2022-08-25T03:03:42;99434.06;;;21.12;81.15
69855;BME280;57146;48.140;16.304;2022-08-25T03:06:11;99439.44;;;21.12;81.05
69855;BME280;57146;48.140;16.304;2022-08-25T03:08:39;99432.97;;;21.13;80.99
69855;BME280;57146;48.140;16.304;2022-08-25T03:11:08;99433.34;;;21.15;81.30
69855;BME280;57146;48.140;16.304;2022-08-25T03:13:35;99431.47;;;21.19;81.08
69855;BME280;57146;48.140;16.304;2022-08-25T03:16:04;99436.09;;;21.22;81.35
69855;BME280;57146;48.140;16.304;2022-08-25T03:18:39;99436.09;;;21.22;80.78
69855;BME280;57146;48.140;16.304;2022-08-25T03:21:10;99442.63;;;21.25;81.17
69855;BME280;57146;48.140;16.304;2022-08-25T03:23:39;99436.47;;;21.21;80.00
69855;BME280;57146;48.140;16.304;2022-08-25T03:26:07;99428.09;;;21.26;81.28
69855;BME280;57146;48.140;16.304;2022-08-25T03:28:34;99440.66;;;21.18;79.96
69855;BME280;57146;48.140;16.304;2022-08-25T03:31:01;99433.03;;;21.20;80.76
69855;BME280;57146;48.140;16.304;2022-08-25T03:33:29;99433.00;;;21.17;80.18
69855;BME280;57146;48.140;16.304;2022-08-25T03:35:57;99432.25;;;21.20;80.45
69855;BME280;57146;48.140;16.304;2022-08-25T03:38:26;99428.13;;;21.29;81.14
69855;BME280;57146;48.140;16.304;2022-08-25T03:40:53;99422.53;;;21.38;81.00
69855;BME280;57146;48.140;16.304;2022-08-25T03:43:20;99426.00;;;21.42;80.70
69855;BME280;57146;48.140;16.304;2022-08-25T03:45:47;99428.31;;;21.44;80.78
69855;BME280;57146;48.140;16.304;2022-08-25T03:48:15;99430.22;;;21.43;80.51
69855;BME280;57146;48.140;16.304;2022-08-25T03:50:45;99427.13;;;21.41;80.58
69855;BME280;57146;48.140;16.304;2022-08-25T03:53:17;99434.75;;;21.36;80.81
69855;BME280;57146;48.140;16.304;2022-08-25T03:55:45;99422.81;;;21.33;81.19
69855;BME280;57146;48.140;16.304;2022-08-25T03:58:12;99425.81;;;21.24;81.28
69855;BME280;57146;48.140;16.304;2022-08-25T04:00:39;99423.06;;;21.17;81.65
69855;BME280;57146;48.140;16.304;2022-08-25T04:03:06;99425.97;;;21.05;82.20
69855;BME280;57146;48.140;16.304;2022-08-25T04:05:33;99429.38;;;21.02;82.56
69855;BME280;57146;48.140;16.304;2022-08-25T04:08:00;99426.66;;;20.98;82.83
69855;BME280;57146;48.140;16.304;2022-08-25T04:10:28;99426.22;;;20.93;82.99
69855;BME280;57146;48.140;16.304;2022-08-25T04:12:55;99433.03;;;20.87;83.06
69855;BME280;57146;48.140;16.304;2022-08-25T04:15:22;99421.88;;;20.81;83.28
69855;BME280;57146;48.140;16.304;2022-08-25T04:17:56;99421.44;;;20.75;83.62
69855;BME280;57146;48.140;16.304;2022-08-25T04:20:23;99424.06;;;20.72;83.95
69855;BME280;57146;48.140;16.304;2022-08-25T04:22:49;99422.88;;;20.69;84.15
69855;BME280;57146;48.140;16.304;2022-08-25T04:25:16;99431.66;;;20.70;84.42
69855;BME280;57146;48.140;16.304;2022-08-25T04:27:43;99428.59;;;20.68;84.53
69855;BME280;57146;48.140;16.304;2022-08-25T04:30:11;99423.97;;;20.65;84.71
69855;BME280;57146;48.140;16.304;2022-08-25T04:32:38;99423.94;;;20.61;84.49
69855;BME280;57146;48.140;16.304;2022-08-25T04:35:05;99431.56;;;20.63;85.03
69855;BME280;57146;48.140;16.304;2022-08-25T04:37:32;99431.63;;;20.66;85.02
69855;BME280;57146;48.140;16.304;2022-08-25T04:40:00;99428.59;;;20.68;85.12
69855;BME280;57146;48.140;16.304;2022-08-25T04:42:27;99425.56;;;20.69;84.94
69855;BME280;57146;48.140;16.304;2022-08-25T04:44:54;99428.66;;;20.71;84.92
69855;BME280;57146;48.140;16.304;2022-08-25T04:47:21;99424.41;;;20.70;84.89
69855;BME280;57146;48.140;16.304;2022-08-25T04:49:48;99425.56;;;20.69;84.89
69855;BME280;57146;48.140;16.304;2022-08-25T04:52:15;99425.59;;;20.73;84.64
69855;BME280;57146;48.140;16.304;2022-08-25T04:54:42;99429.47;;;20.75;84.76
69855;BME280;57146;48.140;16.304;2022-08-25T04:57:09;99426.44;;;20.80;84.61
69855;BME280;57146;48.140;16.304;2022-08-25T04:59:36;99430.75;;;20.89;84.03
69855;BME280;57146;48.140;16.304;2022-08-25T05:02:04;99423.16;;;20.94;84.24
69855;BME280;57146;48.140;16.304;2022-08-25T05:04:33;99415.19;;;20.98;83.91
69855;BME280;57146;48.140;16.304;2022-08-25T05:07:01;99425.88;;;20.98;83.98
69855;BME280;57146;48.140;16.304;2022-08-25T05:09:29;99423.59;;;20.96;84.17
69855;BME280;57146;48.140;16.304;2022-08-25T05:12:01;99423.94;;;20.95;84.00
69855;BME280;57146;48.140;16.304;2022-08-25T05:14:30;99419.38;;;20.95;83.95
69855;BME280;57146;48.140;16.304;2022-08-25T05:16:58;99421.94;;;20.88;84.11
69855;BME280;57146;48.140;16.304;2022-08-25T05:19:25;99418.84;;;20.83;84.57
69855;BME280;57146;48.140;16.304;2022-08-25T05:21:52;99420.72;;;20.78;85.26
69855;BME280;57146;48.140;16.304;2022-08-25T05:24:20;99419.09;;;20.74;85.76
69855;BME280;57146;48.140;16.304;2022-08-25T05:26:47;99418.34;;;20.73;85.55
69855;BME280;57146;48.140;16.304;2022-08-25T05:29:15;99418.38;;;20.77;85.23
69855;BME280;57146;48.140;16.304;2022-08-25T05:31:42;99424.56;;;20.85;85.12
69855;BME280;57146;48.140;16.304;2022-08-25T05:34:15;99420.06;;;20.89;84.57
69855;BME280;57146;48.140;16.304;2022-08-25T05:36:42;99425.03;;;20.90;84.73
69855;BME280;57146;48.140;16.304;2022-08-25T05:39:09;99425.03;;;20.90;84.76
69855;BME280;57146;48.140;16.304;2022-08-25T05:41:37;99424.31;;;20.93;85.01
69855;BME280;57146;48.140;16.304;2022-08-25T05:44:04;99427.75;;;20.94;84.93
69855;BME280;57146;48.140;16.304;2022-08-25T05:46:32;99434.28;;;20.96;84.33
69855;BME280;57146;48.140;16.304;2022-08-25T05:48:59;99432.81;;;20.99;84.47
69855;BME280;57146;48.140;16.304;2022-08-25T05:51:26;99425.16;;;21.01;84.57
69855;BME280;57146;48.140;16.304;2022-08-25T05:53:53;99432.50;;;21.08;84.39
69855;BME280;57146;48.140;16.304;2022-08-25T05:56:20;99427.56;;;21.10;84.14
69855;BME280;57146;48.140;16.304;2022-08-25T05:58:47;99440.56;;;21.11;84.13
69855;BME280;57146;48.140;16.304;2022-08-25T06:01:26;99439.81;;;21.11;84.03
69855;BME280;57146;48.140;16.304;2022-08-25T06:03:53;99441.38;;;21.15;83.41
69855;BME280;57146;48.140;16.304;2022-08-25T06:06:22;99438.38;;;21.20;83.84
69855;BME280;57146;48.140;16.304;2022-08-25T06:08:49;99436.81;;;21.19;82.43
69855;BME280;57146;48.140;16.304;2022-08-25T06:11:16;99443.31;;;21.18;82.86
69855;BME280;57146;48.140;16.304;2022-08-25T06:13:43;99431.03;;;21.14;83.39
69855;BME280;57146;48.140;16.304;2022-08-25T06:16:10;99439.44;;;21.12;83.41
69855;BME280;57146;48.140;16.304;2022-08-25T06:18:37;99435.59;;;21.10;83.30
69855;BME280;57146;48.140;16.304;2022-08-25T06:21:12;99442.03;;;21.05;83.69
69855;BME280;57146;48.140;16.304;2022-08-25T06:23:40;99431.28;;;21.01;83.93
69855;BME280;57146;48.140;16.304;2022-08-25T06:26:11;99432.00;;;20.98;83.67
69855;BME280;57146;48.140;16.304;2022-08-25T06:28:50;99441.19;;;20.97;83.29
69855;BME280;57146;48.140;16.304;2022-08-25T06:31:18;99437.72;;;20.97;82.96
69855;BME280;57146;48.140;16.304;2022-08-25T06:33:46;99443.50;;;20.99;83.29
69855;BME280;57146;48.140;16.304;2022-08-25T06:36:13;99443.13;;;21.00;82.64
69855;BME280;57146;48.140;16.304;2022-08-25T06:38:41;99434.72;;;21.02;82.30
69855;BME280;57146;48.140;16.304;2022-08-25T06:41:09;99439.75;;;21.07;82.84
69855;BME280;57146;48.140;16.304;2022-08-25T06:43:36;99441.69;;;21.07;82.68
69855;BME280;57146;48.140;16.304;2022-08-25T06:46:11;99448.94;;;21.06;82.80
69855;BME280;57146;48.140;16.304;2022-08-25T06:48:38;99446.25;;;21.06;83.18
69855;BME280;57146;48.140;16.304;2022-08-25T06:51:08;99457.34;;;21.08;83.19
69855;BME280;57146;48.140;16.304;2022-08-25T06:53:39;99447.06;;;21.10;82.88
69855;BME280;57146;48.140;16.304;2022-08-25T06:56:06;99448.97;;;21.10;83.17
69855;BME280;57146;48.140;16.304;2022-08-25T06:58:33;99446.34;;;21.13;83.42
69855;BME280;57146;48.140;16.304;2022-08-25T07:03:42;99444.84;;;21.19;82.86
69855;BME280;57146;48.140;16.304;2022-08-25T07:06:09;99452.94;;;21.23;83.07
69855;BME280;57146;48.140;16.304;2022-08-25T07:08:36;99451.78;;;21.20;82.62
69855;BME280;57146;48.140;16.304;2022-08-25T07:11:08;99454.75;;;21.15;82.76
69855;BME280;57146;48.140;16.304;2022-08-25T07:13:42;99461.56;;;21.09;83.03
69855;BME280;57146;48.140;16.304;2022-08-25T07:16:10;99453.16;;;21.07;83.14
69855;BME280;57146;48.140;16.304;2022-08-25T07:18:37;99464.63;;;21.08;83.59
69855;BME280;57146;48.140;16.304;2022-08-25T07:21:04;99461.91;;;21.04;82.94
69855;BME280;57146;48.140;16.304;2022-08-25T07:23:35;99465.72;;;21.03;83.06
69855;BME280;57146;48.140;16.304;2022-08-25T07:26:21;99468.06;;;21.08;84.21
69855;BME280;57146;48.140;16.304;2022-08-25T07:29:24;99470.44;;;21.13;83.06
69855;BME280;57146;48.140;16.304;2022-08-25T07:32:11;99472.88;;;21.29;82.82
69855;BME280;57146;48.140;16.304;2022-08-25T07:34:37;99475.28;;;21.38;82.66
69855;BME280;57146;48.140;16.304;2022-08-25T07:37:09;99473.06;;;21.43;82.48
69855;BME280;57146;48.140;16.304;2022-08-25T07:39:36;99463.50;;;21.42;83.11
69855;BME280;57146;48.140;16.304;2022-08-25T07:42:03;99470.75;;;21.42;82.68
69855;BME280;57146;48.140;16.304;2022-08-25T07:44:37;99470.72;;;21.38;82.53
69855;BME280;57146;48.140;16.304;2022-08-25T07:47:04;99477.06;;;21.26;82.52
69855;BME280;57146;48.140;16.304;2022-08-25T07:49:31;99477.41;;;21.21;82.67
69855;BME280;57146;48.140;16.304;2022-08-25T07:52:05;99475.41;;;21.15;83.62
69855;BME280;57146;48.140;16.304;2022-08-25T07:54:35;99473.38;;;21.04;83.97
69855;BME280;57146;48.140;16.304;2022-08-25T07:57:05;99478.38;;;21.06;84.12
69855;BME280;57146;48.140;16.304;2022-08-25T07:59:32;99476.78;;;21.01;84.53
69855;BME280;57146;48.140;16.304;2022-08-25T08:02:12;99480.22;;;21.02;84.51
69855;BME280;57146;48.140;16.304;2022-08-25T08:04:49;99481.78;;;21.03;84.03
69855;BME280;57146;48.140;16.304;2022-08-25T08:07:24;99490.25;;;21.09;84.03
69855;BME280;57146;48.140;16.304;2022-08-25T08:10:12;99486.06;;;21.11;83.69
69855;BME280;57146;48.140;16.304;2022-08-25T08:12:59;99488.03;;;21.14;84.09
69855;BME280;57146;48.140;16.304;2022-08-25T08:15:26;99487.59;;;21.12;83.95
69855;BME280;57146;48.140;16.304;2022-08-25T08:17:58;99486.44;;;21.10;83.83
69855;BME280;57146;48.140;16.304;2022-08-25T08:20:27;99493.38;;;21.14;84.58
69855;BME280;57146;48.140;16.304;2022-08-25T08:22:54;99487.38;;;21.24;83.44
69855;BME280;57146;48.140;16.304;2022-08-25T08:25:21;99491.66;;;21.33;82.99
69855;BME280;57146;48.140;16.304;2022-08-25T08:27:53;99489.84;;;21.40;82.62
69855;BME280;57146;48.140;16.304;2022-08-25T08:30:22;99482.63;;;21.44;83.43
69855;BME280;57146;48.140;16.304;2022-08-25T08:32:52;99477.72;;;21.50;82.62
69855;BME280;57146;48.140;16.304;2022-08-25T08:35:38;99481.16;;;21.50;82.73
69855;BME280;57146;48.140;16.304;2022-08-25T08:38:05;99483.09;;;21.50;82.52
69855;BME280;57146;48.140;16.304;2022-08-25T08:41:11;99485.41;;;21.55;83.42
69855;BME280;57146;48.140;16.304;2022-08-25T08:43:41;99486.22;;;21.59;82.63
69855;BME280;57146;48.140;16.304;2022-08-25T08:46:09;99487.84;;;21.67;82.25
69855;BME280;57146;48.140;16.304;2022-08-25T08:49:00;99482.53;;;21.74;81.67
69855;BME280;57146;48.140;16.304;2022-08-25T08:51:44;99482.53;;;21.74;82.00
69855;BME280;57146;48.140;16.304;2022-08-25T08:54:18;99480.59;;;21.71;82.03
69855;BME280;57146;48.140;16.304;2022-08-25T08:56:53;99486.06;;;21.82;80.17
69855;BME280;57146;48.140;16.304;2022-08-25T08:59:25;99483.72;;;21.81;81.02
69855;BME280;57146;48.140;16.304;2022-08-25T09:02:02;99482.22;;;21.83;80.43
69855;BME280;57146;48.140;16.304;2022-08-25T09:04:37;99472.78;;;21.96;79.90
69855;BME280;57146;48.140;16.304;2022-08-25T09:07:12;99472.84;;;22.07;79.35
69855;BME280;57146;48.140;16.304;2022-08-25T09:09:42;99474.06;;;22.13;78.93
69855;BME280;57146;48.140;16.304;2022-08-25T09:12:30;99479.16;;;22.26;78.88
69855;BME280;57146;48.140;16.304;2022-08-25T09:18:05;99468.91;;;22.38;78.11
69855;BME280;57146;48.140;16.304;2022-08-25T09:20:53;99461.28;;;22.47;77.22
69855;BME280;57146;48.140;16.304;2022-08-25T09:23:31;99464.78;;;22.59;76.00
69855;BME280;57146;48.140;16.304;2022-08-25T09:28:50;99455.97;;;22.62;76.29
69855;BME280;57146;48.140;16.304;2022-08-25T09:31:22;99451.06;;;22.71;76.88
69855;BME280;57146;48.140;16.304;2022-08-25T09:33:57;99447.22;;;22.76;74.69
69855;BME280;57146;48.140;16.304;2022-08-25T09:36:28;99449.59;;;22.88;74.95
69855;BME280;57146;48.140;16.304;2022-08-25T09:39:00;99443.06;;;22.89;75.01
69855;BME280;57146;48.140;16.304;2022-08-25T09:41:47;99438.50;;;22.93;73.70
69855;BME280;57146;48.140;16.304;2022-08-25T09:44:20;99435.84;;;22.93;74.13
69855;BME280;57146;48.140;16.304;2022-08-25T09:47:06;99428.19;;;23.02;74.36
69855;BME280;57146;48.140;16.304;2022-08-25T09:49:46;99421.28;;;23.05;73.42
69855;BME280;57146;48.140;16.304;2022-08-25T09:54:56;99418.19;;;22.92;75.99
69855;BME280;57146;48.140;16.304;2022-08-25T10:00:26;99416.69;;;23.02;77.22
69855;BME280;57146;48.140;16.304;2022-08-25T10:03:22;99415.53;;;22.99;75.18
69855;BME280;57146;48.140;16.304;2022-08-25T10:08:37;99411.72;;;23.07;75.12
69855;BME280;57146;48.140;16.304;2022-08-25T10:11:08;99411.72;;;23.07;75.91
69855;BME280;57146;48.140;16.304;2022-08-25T10:13:45;99407.13;;;23.11;74.17
69855;BME280;57146;48.140;16.304;2022-08-25T10:16:27;99412.88;;;23.06;73.05
69855;BME280;57146;48.140;16.304;2022-08-25T10:19:08;99405.97;;;23.05;74.16
69855;BME280;57146;48.140;16.304;2022-08-25T10:21:37;99406.38;;;23.25;70.53
69855;BME280;57146;48.140;16.304;2022-08-25T10:24:06;99399.50;;;23.42;71.81
69855;BME280;57146;48.140;16.304;2022-08-25T10:35:20;99382.63;;;23.56;69.75
69855;BME280;57146;48.140;16.304;2022-08-25T10:46:41;99371.47;;;23.86;67.00
69855;BME280;57146;48.140;16.304;2022-08-25T10:49:17;99373.81;;;23.80;69.61
69855;BME280;57146;48.140;16.304;2022-08-25T10:52:04;99368.03;;;23.89;67.06
69855;BME280;57146;48.140;16.304;2022-08-25T11:00:06;99370.72;;;23.89;67.84
69855;BME280;57146;48.140;16.304;2022-08-25T11:05:08;99372.22;;;23.97;67.81
69855;BME280;57146;48.140;16.304;2022-08-25T11:07:43;99364.53;;;24.06;65.76
69855;BME280;57146;48.140;16.304;2022-08-25T11:10:16;99359.16;;;24.06;68.42
69855;BME280;57146;48.140;16.304;2022-08-25T11:12:53;99357.22;;;24.10;68.02
69855;BME280;57146;48.140;16.304;2022-08-25T11:15:26;99363.03;;;24.02;68.29
69855;BME280;57146;48.140;16.304;2022-08-25T11:18:06;99352.63;;;24.00;67.13
69855;BME280;57146;48.140;16.304;2022-08-25T11:23:39;99343.69;;;24.35;64.14
69855;BME280;57146;48.140;16.304;2022-08-25T11:26:14;99345.13;;;24.61;63.11
69855;BME280;57146;48.140;16.304;2022-08-25T11:29:02;99339.00;;;24.57;64.79
69855;BME280;57146;48.140;16.304;2022-08-25T11:31:36;99343.69;;;24.43;64.47
69855;BME280;57146;48.140;16.304;2022-08-25T11:34:08;99333.72;;;24.40;64.86
69855;BME280;57146;48.140;16.304;2022-08-25T11:36:37;99326.03;;;24.38;65.46
69855;BME280;57146;48.140;16.304;2022-08-25T11:44:56;99317.47;;;24.61;62.10
69855;BME280;57146;48.140;16.304;2022-08-25T11:50:03;99317.56;;;25.13;60.22
69855;BME280;57146;48.140;16.304;2022-08-25T11:55:10;99318.22;;;25.24;60.27
69855;BME280;57146;48.140;16.304;2022-08-25T11:57:38;99316.16;;;25.43;60.26
69855;BME280;57146;48.140;16.304;2022-08-25T12:02:53;99318.09;;;25.42;60.29
69855;BME280;57146;48.140;16.304;2022-08-25T12:08:03;99315.63;;;25.14;61.01
69855;BME280;57146;48.140;16.304;2022-08-25T12:13:42;99308.97;;;25.25;60.78
69855;BME280;57146;48.140;16.304;2022-08-25T12:35:37;99303.38;;;25.02;60.40
69855;BME280;57146;48.140;16.304;2022-08-25T12:41:02;99300.28;;;25.03;61.23
69855;BME280;57146;48.140;16.304;2022-08-25T12:43:36;99296.03;;;25.06;61.30
69855;BME280;57146;48.140;16.304;2022-08-25T12:49:42;99289.56;;;24.96;60.93
69855;BME280;57146;48.140;16.304;2022-08-25T12:57:06;99299.88;;;25.08;61.08
69855;BME280;57146;48.140;16.304;2022-08-25T12:59:53;99282.13;;;25.15;60.53
69855;BME280;57146;48.140;16.304;2022-08-25T13:05:46;99279.44;;;25.15;60.89
69855;BME280;57146;48.140;16.304;2022-08-25T13:13:41;99275.97;;;25.18;59.61
69855;BME280;57146;48.140;16.304;2022-08-25T13:16:18;99274.41;;;25.20;59.92
69855;BME280;57146;48.140;16.304;2022-08-25T13:18:46;99276.25;;;25.30;57.57
69855;BME280;57146;48.140;16.304;2022-08-25T13:21:40;99273.00;;;25.46;57.89
69855;BME280;57146;48.140;16.304;2022-08-25T13:24:16;99272.91;;;25.57;58.45
69855;BME280;57146;48.140;16.304;2022-08-25T13:26:47;99272.28;;;25.42;59.15
69855;BME280;57146;48.140;16.304;2022-08-25T13:29:21;99266.16;;;25.38;59.00
69855;BME280;57146;48.140;16.304;2022-08-25T13:31:58;99274.25;;;25.38;57.78
69855;BME280;57146;48.140;16.304;2022-08-25T13:34:35;99270.72;;;25.45;58.24
69855;BME280;57146;48.140;16.304;2022-08-25T13:37:16;99259.84;;;25.55;56.96
69855;BME280;57146;48.140;16.304;2022-08-25T13:39:43;99257.25;;;25.45;57.16
69855;BME280;57146;48.140;16.304;2022-08-25T13:42:24;99258.72;;;25.49;56.59
69855;BME280;57146;48.140;16.304;2022-08-25T13:44:55;99252.13;;;25.54;57.49
69855;BME280;57146;48.140;16.304;2022-08-25T13:47:35;99254.03;;;25.57;57.49
69855;BME280;57146;48.140;16.304;2022-08-25T13:50:32;99244.34;;;25.63;56.63
69855;BME280;57146;48.140;16.304;2022-08-25T13:55:36;99250.47;;;25.67;56.64
69855;BME280;57146;48.140;16.304;2022-08-25T13:58:23;99242.72;;;25.73;56.75
69855;BME280;57146;48.140;16.304;2022-08-25T14:01:24;99238.41;;;25.79;56.00
69855;BME280;57146;48.140;16.304;2022-08-25T14:06:47;99233.72;;;25.87;56.20
69855;BME280;57146;48.140;16.304;2022-08-25T14:09:16;99235.72;;;25.79;56.45
69855;BME280;57146;48.140;16.304;2022-08-25T14:11:56;99228.78;;;25.78;56.58
69855;BME280;57146;48.140;16.304;2022-08-25T14:16:57;99223.53;;;26.01;56.42
69855;BME280;57146;48.140;16.304;2022-08-25T14:19:45;99218.75;;;26.13;56.21
69855;BME280;57146;48.140;16.304;2022-08-25T14:22:13;99219.28;;;26.00;56.32
69855;BME280;57146;48.140;16.304;2022-08-25T14:24:40;99217.66;;;26.07;56.56
69855;BME280;57146;48.140;16.304;2022-08-25T14:27:06;99209.84;;;26.16;55.63
69855;BME280;57146;48.140;16.304;2022-08-25T14:29:37;99210.28;;;26.11;55.10
69855;BME280;57146;48.140;16.304;2022-08-25T14:32:08;99203.44;;;26.06;55.03
69855;BME280;57146;48.140;16.304;2022-08-25T14:34:36;99206.59;;;26.01;54.93
69855;BME280;57146;48.140;16.304;2022-08-25T14:37:16;99206.22;;;25.99;54.27
69855;BME280;57146;48.140;16.304;2022-08-25T14:39:43;99202.72;;;26.02;53.83
69855;BME280;57146;48.140;16.304;2022-08-25T14:42:12;99201.94;;;26.01;54.44
69855;BME280;57146;48.140;16.304;2022-08-25T14:44:39;99203.56;;;25.95;52.87
69855;BME280;57146;48.140;16.304;2022-08-25T14:47:06;99203.94;;;25.97;51.98
69855;BME280;57146;48.140;16.304;2022-08-25T14:49:37;99193.88;;;26.01;53.70
69855;BME280;57146;48.140;16.304;2022-08-25T14:52:17;99200.34;;;26.04;53.93
69855;BME280;57146;48.140;16.304;2022-08-25T14:54:48;99194.88;;;26.11;54.51
69855;BME280;57146;48.140;16.304;2022-08-25T14:57:15;99196.41;;;26.39;53.26
69855;BME280;57146;48.140;16.304;2022-08-25T14:59:42;99197.69;;;26.31;53.43
69855;BME280;57146;48.140;16.304;2022-08-25T15:02:11;99190.41;;;26.28;54.28
69855;BME280;57146;48.140;16.304;2022-08-25T15:04:50;99187.25;;;26.33;53.76
69855;BME280;57146;48.140;16.304;2022-08-25T15:07:18;99192.91;;;26.42;53.49